createdAt,value
2022-09-20T00:01:59.958Z,98687.59
2022-09-20T00:05:12.033Z,98680.91
2022-09-20T00:08:25.395Z,98674.75
2022-09-20T00:11:37.188Z,98673.91
2022-09-20T00:14:45.712Z,98679.53
2022-09-20T00:17:54.025Z,98676.00
2022-09-20T00:21:03.204Z,98675.97
2022-09-20T00:24:13.832Z,98678.63
2022-09-20T00:27:25.144Z,98674.88
2022-09-20T00:30:34.622Z,98680.22
2022-09-20T00:33:57.335Z,98679.19
2022-09-20T00:37:04.168Z,98677.59
2022-09-20T00:40:17.100Z,98682.16
2022-09-20T00:43:38.715Z,98675.22
2022-09-20T00:46:48.492Z,98673.06
2022-09-20T00:50:02.272Z,98673.63
2022-09-20T00:53:14.200Z,98671.72
2022-09-20T00:56:25.933Z,98675.22
2022-09-20T00:59:36.208Z,98676.53
2022-09-20T01:02:47.135Z,98679.50
2022-09-20T01:05:55.457Z,98672.53
2022-09-20T01:09:05.407Z,98675.22
2022-09-20T01:12:19.418Z,98672.81
2022-09-20T01:15:28.987Z,98672.53
2022-09-20T01:18:36.448Z,98677.84
2022-09-20T01:21:43.306Z,98673.00
2022-09-20T01:24:59.402Z,98678.91
2022-09-20T01:28:08.140Z,98672.47
2022-09-20T01:31:19.183Z,98673.28
2022-09-20T01:34:31.309Z,98674.88
2022-09-20T01:37:49.353Z,98668.97
2022-09-20T01:41:04.870Z,98664.16
2022-09-20T01:44:23.695Z,98670.06
2022-09-20T01:47:36.212Z,98673.50
2022-09-20T01:50:56.949Z,98667.38
2022-09-20T01:54:37.221Z,98667.06
2022-09-20T01:58:17.959Z,98669.72
2022-09-20T02:02:10.407Z,98661.41
2022-09-20T02:05:41.108Z,98661.69
2022-09-20T02:09:14.074Z,98662.00
2022-09-20T02:12:50.925Z,98665.72
2022-09-20T02:16:27.512Z,98667.09
2022-09-20T02:20:04.692Z,98671.16
2022-09-20T02:23:30.093Z,98668.75
2022-09-20T02:26:42.108Z,98664.22
2022-09-20T02:29:57.808Z,98661.81
2022-09-20T02:33:13.629Z,98667.72
2022-09-20T02:36:28.121Z,98661.53
2022-09-20T02:39:37.384Z,98671.44
2022-09-20T02:42:46.056Z,98664.75
2022-09-20T02:45:59.909Z,98654.31
2022-09-20T02:49:08.914Z,98668.81
2022-09-20T02:52:21.766Z,98668.50
2022-09-20T02:55:36.785Z,98662.34
2022-09-20T02:58:53.105Z,98665.00
2022-09-20T03:02:07.334Z,98669.78
2022-09-20T03:05:18.290Z,98668.13
2022-09-20T03:08:32.876Z,98674.19
2022-09-20T03:11:47.254Z,98676.53
2022-09-20T03:15:01.356Z,98677.06
2022-09-20T03:18:11.196Z,98686.38
2022-09-20T03:21:28.928Z,98682.91
2022-09-20T03:24:43.146Z,98676.25
2022-09-20T03:27:55.952Z,98682.97
2022-09-20T03:31:06.794Z,98686.22
2022-09-20T03:34:22.053Z,98683.00
2022-09-20T03:37:40.842Z,98685.94
2022-09-20T03:41:16.243Z,98692.66
2022-09-20T03:44:42.413Z,98676.59
2022-09-20T03:48:15.001Z,98690.25
2022-09-20T03:51:33.589Z,98686.22
2022-09-20T03:55:20.861Z,98685.25
2022-09-20T03:58:35.424Z,98693.06
2022-09-20T04:01:54.836Z,98694.41
2022-09-20T04:05:01.954Z,98695.22
2022-09-20T04:08:19.002Z,98700.31
2022-09-20T04:11:30.384Z,98697.63
2022-09-20T04:14:39.165Z,98694.66
2022-09-20T04:17:50.122Z,98705.69
2022-09-20T04:21:01.639Z,98702.22
2022-09-20T04:24:12.589Z,98703.03
2022-09-20T04:27:21.450Z,98704.66
2022-09-20T04:30:27.719Z,98704.16
2022-09-20T04:33:35.832Z,98702.81
2022-09-20T04:36:57.648Z,98708.72
2022-09-20T04:40:10.898Z,98708.72
2022-09-20T04:43:51.171Z,98703.31
2022-09-20T04:47:18.458Z,98708.41
2022-09-20T04:50:56.918Z,98713.75
2022-09-20T04:54:25.866Z,98725.03
2022-09-20T04:57:53.898Z,98725.84
2022-09-20T05:01:32.256Z,98730.94
2022-09-20T05:05:14.370Z,98738.19
2022-09-20T05:08:58.818Z,98737.16
2022-09-20T05:12:37.953Z,98743.81
2022-09-20T05:15:44.327Z,98735.75
2022-09-20T05:19:14.232Z,98743.28
2022-09-20T05:22:37.380Z,98739.72
2022-09-20T05:25:52.705Z,98740.50
2022-09-20T05:29:02.404Z,98746.06
2022-09-20T05:32:13.890Z,98744.63
2022-09-20T05:35:23.850Z,98740.56
2022-09-20T05:38:34.198Z,98750.16
2022-09-20T05:41:46.760Z,98750.41
2022-09-20T05:44:58.783Z,98751.53
2022-09-20T05:48:12.884Z,98753.19
2022-09-20T05:51:28.825Z,98754.66
2022-09-20T05:54:48.522Z,98752.91
2022-09-20T05:58:06.673Z,98756.75
2022-09-20T06:01:15.950Z,98762.75
2022-09-20T06:04:24.745Z,98762.81
2022-09-20T06:07:39.872Z,98763.94
2022-09-20T06:11:01.516Z,98763.19
2022-09-20T06:14:23.464Z,98761.38
2022-09-20T06:17:29.525Z,98764.34
2022-09-20T06:20:38.285Z,98764.66
2022-09-20T06:23:41.398Z,98767.41
2022-09-20T06:26:45.378Z,98764.22
2022-09-20T06:29:54.122Z,98773.66
2022-09-20T06:32:59.158Z,98773.19
2022-09-20T06:36:21.829Z,98771.06
2022-09-20T06:39:51.402Z,98772.41
2022-09-20T06:42:54.901Z,98777.25
2022-09-20T06:45:58.952Z,98776.06
2022-09-20T06:49:02.112Z,98777.28
2022-09-20T06:52:06.457Z,98771.84
2022-09-20T06:55:18.332Z,98769.19
2022-09-20T06:58:20.987Z,98779.84
2022-09-20T07:01:30.102Z,98773.84
2022-09-20T07:04:34.169Z,98774.72
2022-09-20T07:07:36.800Z,98774.53
2022-09-20T07:10:39.822Z,98778.56
2022-09-20T07:13:42.852Z,98784.34
2022-09-20T07:16:46.881Z,98779.38
2022-09-20T07:19:52.106Z,98790.53
2022-09-20T07:22:56.634Z,98796.69
2022-09-20T07:26:01.916Z,98801.31
2022-09-20T07:29:08.356Z,98805.50
2022-09-20T07:32:15.624Z,98798.34
2022-09-20T07:35:20.643Z,98800.63
2022-09-20T07:38:25.789Z,98801.56
2022-09-20T07:41:32.161Z,98801.31
2022-09-20T07:44:37.177Z,98801.41
2022-09-20T07:47:47.084Z,98803.03
2022-09-20T07:50:55.690Z,98807.91
2022-09-20T07:54:00.449Z,98808.19
2022-09-20T07:57:05.998Z,98811.97
2022-09-20T08:00:13.495Z,98817.03
2022-09-20T08:03:19.896Z,98820.53
2022-09-20T08:06:25.047Z,98823.22
2022-09-20T08:09:30.212Z,98822.06
2022-09-20T08:16:04.201Z,98823.47
2022-09-20T08:19:13.163Z,98830.50
2022-09-20T08:22:20.703Z,98837.06
2022-09-20T08:25:25.707Z,98837.09
2022-09-20T08:28:30.771Z,98834.31
2022-09-20T08:31:38.758Z,98837.97
2022-09-20T08:34:49.343Z,98827.34
2022-09-20T08:39:57.286Z,98831.59
2022-09-20T08:41:29.137Z,98829.34
2022-09-20T08:44:38.532Z,98831.53
2022-09-20T08:47:58.366Z,98826.56
2022-09-20T08:51:06.683Z,98824.41
2022-09-20T08:54:16.638Z,98828.97
2022-09-20T08:57:23.202Z,98828.44
2022-09-20T09:00:31.100Z,98824.47
2022-09-20T09:03:36.574Z,98824.69
2022-09-20T09:06:44.756Z,98822.38
2022-09-20T09:09:51.719Z,98826.09
2022-09-20T09:12:58.371Z,98828.72
2022-09-20T09:16:07.331Z,98831.75
2022-09-20T09:19:33.335Z,98832.94
2022-09-20T09:22:43.105Z,98828.81
2022-09-20T09:25:45.845Z,98822.06
2022-09-20T09:29:03.720Z,98817.81
2022-09-20T09:32:22.052Z,98812.84
2022-09-20T09:35:30.359Z,98814.03
2022-09-20T09:38:36.767Z,98821.16
2022-09-20T09:41:39.373Z,98821.50
2022-09-20T09:44:41.989Z,98814.31
2022-09-20T09:47:45.942Z,98817.34
2022-09-20T09:50:48.956Z,98819.22
2022-09-20T09:53:55.047Z,98811.84
2022-09-20T09:57:10.928Z,98820.75
2022-09-20T10:00:21.895Z,98818.78
2022-09-20T10:03:33.518Z,98812.03
2022-09-20T10:06:49.395Z,98810.31
2022-09-20T10:10:08.980Z,98804.31
2022-09-20T10:13:21.625Z,98816.16
2022-09-20T10:16:34.381Z,98811.56
2022-09-20T10:19:57.288Z,98814.44
2022-09-20T10:26:49.324Z,98808.28
2022-09-20T10:30:09.821Z,98812.75
2022-09-20T10:33:25.220Z,98814.50
2022-09-20T10:36:33.070Z,98816.31
2022-09-20T10:39:37.842Z,98812.56
2022-09-20T10:43:05.225Z,98809.41
2022-09-20T10:46:33.666Z,98808.91
2022-09-20T10:49:43.050Z,98802.91
2022-09-20T10:52:59.971Z,98809.47
2022-09-20T10:56:17.875Z,98808.09
2022-09-20T10:59:33.915Z,98814.44
2022-09-20T11:02:47.243Z,98816.41
2022-09-20T11:06:00.637Z,98803.13
2022-09-20T11:09:05.709Z,98806.56
2022-09-20T11:12:16.237Z,98813.25
2022-09-20T11:15:24.726Z,98805.88
2022-09-20T11:18:35.685Z,98808.50
2022-09-20T11:21:43.057Z,98814.22
2022-09-20T11:24:51.344Z,98808.81
2022-09-20T11:27:58.169Z,98822.78
2022-09-20T11:31:08.288Z,98812.34
2022-09-20T11:34:18.466Z,98808.91
2022-09-20T11:37:24.022Z,98804.31
2022-09-20T11:40:32.752Z,98804.81
2022-09-20T11:43:36.685Z,98807.22
2022-09-20T11:46:47.785Z,98809.56
2022-09-20T11:50:17.627Z,98809.34
2022-09-20T11:53:37.444Z,98809.78
2022-09-20T11:56:40.357Z,98815.00
2022-09-20T11:59:44.685Z,98804.72
2022-09-20T12:02:51.999Z,98798.88
2022-09-20T12:06:00.734Z,98794.16
2022-09-20T12:09:06.697Z,98779.56
2022-09-20T12:12:21.286Z,98769.91
2022-09-20T12:15:26.273Z,98770.72
2022-09-20T12:18:46.727Z,98766.44
2022-09-20T12:22:19.092Z,98768.53
2022-09-20T12:25:39.925Z,98764.09
2022-09-20T12:28:44.735Z,98765.06
2022-09-20T12:31:49.451Z,98767.13
2022-09-20T12:34:53.492Z,98755.22
2022-09-20T12:37:56.565Z,98758.97
2022-09-20T12:41:01.461Z,98749.91
2022-09-20T12:44:21.824Z,98750.91
2022-09-20T12:47:27.908Z,98745.72
2022-09-20T12:50:52.577Z,98746.91
2022-09-20T12:54:08.581Z,98755.09
2022-09-20T12:57:19.307Z,98751.56
2022-09-20T13:00:34.057Z,98750.56
2022-09-20T13:03:38.468Z,98750.41
2022-09-20T13:06:42.589Z,98745.34
2022-09-20T13:09:45.639Z,98749.75
2022-09-20T13:12:52.622Z,98750.09
2022-09-20T13:15:59.181Z,98752.97
2022-09-20T13:19:07.225Z,98752.47
2022-09-20T13:22:18.801Z,98753.78
2022-09-20T13:25:24.633Z,98757.41
2022-09-20T13:28:37.036Z,98757.88
2022-09-20T13:31:42.067Z,98761.28
2022-09-20T13:34:49.994Z,98757.44
2022-09-20T13:37:59.737Z,98754.44
2022-09-20T13:41:10.241Z,98759.25
2022-09-20T13:44:19.105Z,98758.53
2022-09-20T13:47:26.313Z,98763.03
2022-09-20T13:50:34.294Z,98775.38
2022-09-20T13:53:42.272Z,98771.19
2022-09-20T13:56:47.694Z,98774.69
2022-09-20T13:59:54.624Z,98781.19
2022-09-20T14:03:00.979Z,98780.53
2022-09-20T14:06:12.617Z,98777.22
2022-09-20T14:09:26.537Z,98778.66
2022-09-20T14:12:34.762Z,98789.63
2022-09-20T14:15:43.315Z,98782.16
2022-09-20T14:18:50.803Z,98783.97
2022-09-20T14:21:55.880Z,98782.00
2022-09-20T14:25:04.557Z,98778.31
2022-09-20T14:28:19.407Z,98778.88
2022-09-20T14:31:27.587Z,98777.91
2022-09-20T14:34:32.883Z,98774.56
2022-09-20T14:37:45.024Z,98770.03
2022-09-20T14:40:52.137Z,98771.41
2022-09-20T14:43:59.569Z,98775.66
2022-09-20T14:47:16.816Z,98764.94
2022-09-20T14:50:30.691Z,98773.25
2022-09-20T14:53:38.571Z,98772.53
2022-09-20T14:56:53.338Z,98766.19
2022-09-20T14:59:59.670Z,98767.94
2022-09-20T15:03:12.705Z,98766.38
2022-09-20T15:06:17.658Z,98767.97
2022-09-20T15:09:23.671Z,98766.50
2022-09-20T15:12:29.965Z,98767.84
2022-09-20T15:15:35.007Z,98757.22
2022-09-20T15:18:42.898Z,98755.97
2022-09-20T15:21:48.166Z,98758.50
2022-09-20T15:24:52.967Z,98758.28
2022-09-20T15:27:59.737Z,98763.34
2022-09-20T15:31:04.825Z,98767.66
2022-09-20T15:34:09.636Z,98764.63
2022-09-20T15:37:14.836Z,98756.84
2022-09-20T15:40:19.831Z,98762.84
2022-09-20T15:43:27.665Z,98768.84
2022-09-20T15:46:33.198Z,98756.84
2022-09-20T15:49:37.591Z,98758.91
2022-09-20T15:52:44.200Z,98754.28
2022-09-20T15:55:49.016Z,98757.28
2022-09-20T15:58:59.690Z,98755.22
2022-09-20T16:02:04.693Z,98748.16
2022-09-20T16:05:11.244Z,98751.16
2022-09-20T16:08:16.183Z,98756.34
2022-09-20T16:11:23.230Z,98753.00
2022-09-20T16:14:29.799Z,98760.81
2022-09-20T16:17:51.179Z,98762.59
2022-09-20T16:20:56.134Z,98764.84
2022-09-20T16:24:01.393Z,98768.47
2022-09-20T16:27:10.215Z,98769.50
2022-09-20T16:30:20.625Z,98773.44
2022-09-20T16:33:25.833Z,98776.75
2022-09-20T16:36:30.719Z,98777.94
2022-09-20T16:39:35.995Z,98777.50
2022-09-20T16:42:42.702Z,98781.84
2022-09-20T16:45:49.124Z,98787.63
2022-09-20T16:48:55.130Z,98790.91
2022-09-20T16:52:00.193Z,98793.66
2022-09-20T16:55:05.560Z,98784.50
2022-09-20T16:58:11.567Z,98797.16
2022-09-20T17:01:20.898Z,98786.97
2022-09-20T17:04:25.865Z,98797.19
2022-09-20T17:07:30.890Z,98798.56
2022-09-20T17:10:35.471Z,98801.31
2022-09-20T17:13:41.905Z,98799.16
2022-09-20T17:16:49.787Z,98801.91
2022-09-20T17:19:55.338Z,98804.06
2022-09-20T17:23:00.349Z,98807.63
2022-09-20T17:26:07.332Z,98817.09
2022-09-20T17:29:14.490Z,98811.75
2022-09-20T17:32:21.142Z,98817.94
2022-09-20T17:35:26.152Z,98817.41
2022-09-20T17:38:32.204Z,98819.56
2022-09-20T17:41:37.280Z,98824.72
2022-09-20T17:44:42.130Z,98828.50
2022-09-20T17:47:48.497Z,98825.03
2022-09-20T17:50:59.617Z,98838.78
2022-09-20T17:54:04.674Z,98838.53
2022-09-20T17:57:09.650Z,98838.25
2022-09-20T18:00:14.922Z,98841.50
2022-09-20T18:03:22.835Z,98845.53
2022-09-20T18:06:29.027Z,98845.81
2022-09-20T18:09:34.099Z,98850.41
2022-09-20T18:12:39.309Z,98863.31
2022-09-20T18:15:46.187Z,98864.13
2022-09-20T18:18:53.173Z,98874.63
2022-09-20T18:21:58.091Z,98871.91
2022-09-20T18:25:04.778Z,98872.72
2022-09-20T18:28:09.992Z,98878.88
2022-09-20T18:31:14.818Z,98885.84
2022-09-20T18:34:22.918Z,98886.63
2022-09-20T18:37:31.045Z,98893.84
2022-09-20T18:40:37.233Z,98892.75
2022-09-20T18:43:44.662Z,98896.75
2022-09-20T18:46:52.859Z,98894.31
2022-09-20T18:49:59.760Z,98904.50
2022-09-20T18:53:07.677Z,98910.94
2022-09-20T18:56:21.674Z,98910.38
2022-09-20T18:59:29.049Z,98915.16
2022-09-20T19:03:01.650Z,98918.91
2022-09-20T19:06:13.241Z,98928.28
2022-09-20T19:09:26.559Z,98923.75
2022-09-20T19:12:36.851Z,98934.50
2022-09-20T19:16:04.886Z,98928.34
2022-09-20T19:19:48.109Z,98943.66
2022-09-20T19:23:07.119Z,98946.34
2022-09-20T19:26:21.002Z,98948.75
2022-09-20T19:29:28.120Z,98954.38
2022-09-20T19:32:34.888Z,98952.94
2022-09-20T19:35:46.170Z,98958.56
2022-09-20T19:39:04.217Z,98957.72
2022-09-20T19:42:16.972Z,98954.69
2022-09-20T19:45:33.096Z,98960.84
2022-09-20T19:48:41.695Z,98959.19
2022-09-20T19:51:46.966Z,98954.88
2022-09-20T19:54:54.555Z,98964.50
2022-09-20T19:57:59.865Z,98966.69
2022-09-20T20:01:05.919Z,98965.31
2022-09-20T20:04:11.600Z,98966.38
2022-09-20T20:07:28.150Z,98965.81
2022-09-20T20:10:44.401Z,98973.88
2022-09-20T20:14:07.484Z,98973.03
2022-09-20T20:17:25.616Z,98970.59
2022-09-20T20:20:39.095Z,98977.34
2022-09-20T20:23:58.340Z,98973.28
2022-09-20T20:27:18.698Z,98963.56
2022-09-20T20:30:23.389Z,98970.78
2022-09-20T20:33:28.076Z,98973.09
2022-09-20T20:36:33.509Z,98989.97
2022-09-20T20:39:38.527Z,98983.69
2022-09-20T20:42:44.896Z,98984.69
2022-09-20T20:45:52.818Z,98984.41
2022-09-20T20:48:58.940Z,98987.91
2022-09-20T20:52:05.250Z,98988.91
2022-09-20T20:55:11.126Z,98982.50
2022-09-20T20:58:18.191Z,98973.06
2022-09-20T21:01:24.686Z,98988.31
2022-09-20T21:04:30.599Z,98988.56
2022-09-20T21:07:35.170Z,98984.44
2022-09-20T21:10:40.217Z,98983.09
2022-09-20T21:13:48.965Z,98989.75
2022-09-20T21:16:54.344Z,98991.31
2022-09-20T21:20:01.164Z,98984.13
2022-09-20T21:23:06.052Z,98984.38
2022-09-20T21:26:13.031Z,98979.53
2022-09-20T21:29:20.740Z,98987.16
2022-09-20T21:32:25.556Z,98983.88
2022-09-20T21:35:30.857Z,98981.63
2022-09-20T21:38:36.826Z,98988.13
2022-09-20T21:41:41.944Z,98984.75
2022-09-20T21:44:48.430Z,98995.16
2022-09-20T21:47:54.597Z,98987.28
2022-09-20T21:51:06.874Z,98990.53
2022-09-20T21:54:12.190Z,98998.31
2022-09-20T21:57:17.272Z,99001.19
2022-09-20T22:00:25.088Z,98995.25
2022-09-20T22:03:35.681Z,98999.91
2022-09-20T22:06:41.930Z,99001.44
2022-09-20T22:09:46.865Z,98997.47
2022-09-20T22:12:51.925Z,98988.72
2022-09-20T22:16:05.929Z,98990.69
2022-09-20T22:19:12.535Z,98995.56
2022-09-20T22:22:17.457Z,98985.84
2022-09-20T22:25:22.522Z,98978.38
2022-09-20T22:28:27.412Z,98985.34
2022-09-20T22:31:34.830Z,98976.44
2022-09-20T22:34:39.517Z,98974.97
2022-09-20T22:37:44.765Z,98981.94
2022-09-20T22:40:59.942Z,98983.31
2022-09-20T22:44:04.713Z,98982.50
2022-09-20T22:47:10.986Z,98990.47
2022-09-20T22:50:15.998Z,98991.13
2022-09-20T22:53:20.887Z,98985.69
2022-09-20T22:56:29.130Z,98990.53
2022-09-20T22:59:33.968Z,98986.16
2022-09-20T23:02:39.983Z,98988.19
2022-09-20T23:05:46.081Z,98988.28
2022-09-20T23:08:53.551Z,98987.44
2022-09-20T23:11:58.660Z,98993.69
2022-09-20T23:15:03.771Z,98998.41
2022-09-20T23:18:10.273Z,98999.13
2022-09-20T23:21:17.799Z,98995.22
2022-09-20T23:24:24.205Z,98998.88
2022-09-20T23:27:29.323Z,98990.19
2022-09-20T23:30:34.592Z,98996.69
2022-09-20T23:33:46.621Z,99000.41
2022-09-20T23:36:53.395Z,98998.78
2022-09-20T23:39:58.462Z,98995.28
2022-09-20T23:43:03.273Z,99007.09
2022-09-20T23:46:10.643Z,99006.53
2022-09-20T23:49:17.342Z,99001.75
2022-09-20T23:52:22.395Z,99008.25
2022-09-20T23:55:27.066Z,99004.19
2022-09-20T23:58:32.586Z,99009.41
